createdAt,value
2018-05-04T00:00:31.631Z,105334.80
2018-05-04T00:02:59.164Z,105418.18
2018-05-04T00:05:26.698Z,105447.67
2018-05-04T00:07:54.243Z,105446.66
2018-05-04T00:10:21.918Z,105378.52
2018-05-04T00:12:49.481Z,105337.84
2018-05-04T00:15:17.003Z,105401.91
2018-05-04T00:17:44.943Z,105483.26
2018-05-04T00:20:12.472Z,105438.52
2018-05-04T00:22:40.002Z,105508.68
2018-05-04T00:25:07.566Z,105564.61
2018-05-04T00:27:35.096Z,105578.84
2018-05-04T00:30:02.646Z,105580.88
2018-05-04T00:32:30.170Z,105463.94
2018-05-04T00:34:57.719Z,105478.17
2018-05-04T00:37:25.247Z,105415.13
2018-05-04T00:39:52.826Z,105452.75
2018-05-04T00:42:20.349Z,105469.02
2018-05-04T00:44:47.880Z,105546.31
2018-05-04T00:47:15.623Z,105501.56
2018-05-04T00:49:43.144Z,105474.11
2018-05-04T00:52:10.670Z,105498.52
2018-05-04T00:54:38.227Z,105605.29
2018-05-04T00:57:05.764Z,105547.33
2018-05-04T00:59:33.357Z,105514.78
2018-05-04T01:02:00.882Z,105487.33
2018-05-04T01:04:28.402Z,105508.68
2018-05-04T01:06:56.316Z,105639.86
2018-05-04T01:09:23.835Z,105610.38
2018-05-04T01:11:51.351Z,105655.11
2018-05-04T01:14:18.899Z,105631.73
2018-05-04T01:16:46.419Z,105594.10
2018-05-04T01:19:14.246Z,105578.84
2018-05-04T01:21:41.795Z,105621.56
2018-05-04T01:24:09.335Z,105726.30
2018-05-04T01:26:36.895Z,105721.22
2018-05-04T01:29:04.427Z,105700.87
2018-05-04T01:31:32.086Z,105700.87
2018-05-04T01:33:59.630Z,105638.84
2018-05-04T01:36:27.182Z,105615.45
2018-05-04T01:38:54.751Z,105656.14
2018-05-04T01:41:22.272Z,105704.95
2018-05-04T01:43:49.832Z,105686.64
2018-05-04T01:46:17.357Z,105687.66
2018-05-04T01:48:44.883Z,105656.14
2018-05-04T01:51:12.439Z,105661.22
2018-05-04T01:53:39.967Z,105621.56
2018-05-04T01:56:07.517Z,105697.83
2018-05-04T01:58:35.071Z,105726.30
2018-05-04T02:01:02.600Z,105742.58
2018-05-04T02:03:30.590Z,105704.95
2018-05-04T02:05:58.120Z,105672.41
2018-05-04T02:08:25.647Z,105710.03
2018-05-04T02:10:53.355Z,105679.52
2018-05-04T02:13:20.884Z,105667.32
2018-05-04T02:15:48.424Z,105676.47
2018-05-04T02:18:15.982Z,105697.83
2018-05-04T02:20:43.544Z,105726.30
2018-05-04T02:23:11.089Z,105690.71
2018-05-04T02:25:38.682Z,105757.83
2018-05-04T02:28:06.202Z,105719.19
2018-05-04T02:30:33.740Z,105697.83
2018-05-04T02:33:01.279Z,105687.66
2018-05-04T02:35:28.848Z,105655.11
2018-05-04T02:37:56.491Z,105687.66
2018-05-04T02:40:24.029Z,105644.95
2018-05-04T02:42:51.605Z,105693.77
2018-05-04T02:45:19.135Z,105805.63
2018-05-04T02:47:46.658Z,105790.38
2018-05-04T02:50:14.217Z,105712.06
2018-05-04T02:52:41.752Z,105736.47
2018-05-04T02:55:09.307Z,105805.63
2018-05-04T02:57:36.840Z,105761.90
2018-05-04T03:00:04.438Z,105811.73
2018-05-04T03:02:31.968Z,105831.05
2018-05-04T03:04:59.500Z,105828.00
2018-05-04T03:07:27.045Z,105865.62
2018-05-04T03:09:54.575Z,105877.83
2018-05-04T03:12:22.551Z,105775.12
2018-05-04T03:14:50.075Z,105794.44
2018-05-04T03:17:17.607Z,105785.29
2018-05-04T03:19:45.562Z,105814.78
2018-05-04T03:22:13.095Z,105835.12
2018-05-04T03:24:40.628Z,105892.07
2018-05-04T03:27:08.224Z,105868.69
2018-05-04T03:29:35.756Z,105820.88
2018-05-04T03:32:03.287Z,105783.25
2018-05-04T03:34:30.842Z,105854.45
2018-05-04T03:36:58.385Z,105807.66
2018-05-04T03:39:26.667Z,105842.23
2018-05-04T03:41:54.233Z,105834.10
2018-05-04T03:44:21.763Z,105793.42
2018-05-04T03:46:49.332Z,105813.77
2018-05-04T03:49:16.870Z,105776.13
2018-05-04T03:51:44.432Z,105784.27
2018-05-04T03:54:11.962Z,105791.39
2018-05-04T03:56:39.670Z,105798.51
2018-05-04T03:59:19.146Z,105792.41
2018-05-04T04:04:50.843Z,105789.36
2018-05-04T04:07:18.365Z,105763.93
2018-05-04T04:09:45.920Z,105805.63
2018-05-04T04:12:13.447Z,105759.86
2018-05-04T04:14:41.133Z,105739.52
2018-05-04T04:17:08.659Z,105776.13
2018-05-04T04:19:36.192Z,105752.74
2018-05-04T04:22:03.749Z,105713.09
2018-05-04T04:24:31.291Z,105755.80
2018-05-04T04:26:58.986Z,105746.64
2018-05-04T04:29:26.514Z,105701.90
2018-05-04T04:31:54.054Z,105705.97
2018-05-04T04:34:22.043Z,105705.97
2018-05-04T04:36:49.567Z,105680.54
2018-05-04T04:39:17.092Z,105706.98
2018-05-04T04:41:44.844Z,105671.39
2018-05-04T04:44:12.367Z,105685.62
2018-05-04T04:46:39.891Z,105662.23
2018-05-04T04:49:07.453Z,105659.19
2018-05-04T04:51:34.981Z,105607.32
2018-05-04T04:54:02.709Z,105575.80
2018-05-04T04:56:30.378Z,105547.33
2018-05-04T04:58:57.914Z,105525.97
2018-05-04T05:01:25.451Z,105516.81
2018-05-04T05:03:53.006Z,105496.48
2018-05-04T05:06:20.535Z,105440.55
2018-05-04T05:08:48.063Z,105389.70
2018-05-04T05:11:15.629Z,105390.72
2018-05-04T05:13:43.154Z,105383.60
2018-05-04T05:16:10.686Z,105338.86
2018-05-04T05:18:38.239Z,105299.20
2018-05-04T05:21:05.900Z,105262.60
2018-05-04T05:23:33.478Z,105235.15
2018-05-04T05:26:01.031Z,105337.84
2018-05-04T05:28:28.578Z,105172.10
2018-05-04T05:30:56.107Z,105103.98
2018-05-04T05:33:23.690Z,104888.42
2018-05-04T05:35:51.227Z,104791.84
2018-05-04T05:38:18.741Z,104441.10
2018-05-04T05:40:46.800Z,104387.22
2018-05-04T05:43:14.333Z,104156.47
2018-05-04T05:45:41.858Z,104308.95
2018-05-04T05:48:09.424Z,104274.39
2018-05-04T05:50:36.951Z,104251.00
2018-05-04T05:53:04.502Z,104106.66
2018-05-04T05:55:32.059Z,104457.37
2018-05-04T05:57:59.664Z,103959.27
2018-05-04T06:00:27.187Z,104023.31
2018-05-04T06:02:54.787Z,104231.69
2018-05-04T06:05:22.320Z,103837.30
2018-05-04T06:07:49.853Z,104083.28
2018-05-04T06:10:17.531Z,103796.64
2018-05-04T06:12:45.075Z,103819.00
2018-05-04T06:15:12.612Z,103593.38
2018-05-04T06:17:40.159Z,103501.91
2018-05-04T06:20:07.702Z,103491.73
2018-05-04T06:22:35.266Z,103733.62
2018-05-04T06:25:02.819Z,103827.14
2018-05-04T06:27:30.583Z,103941.99
2018-05-04T06:29:58.106Z,103705.17
2018-05-04T06:32:25.636Z,103917.59
2018-05-04T06:34:53.186Z,103741.77
2018-05-04T06:37:20.715Z,103534.42
2018-05-04T06:39:48.464Z,103447.02
2018-05-04T06:42:15.986Z,103635.04
2018-05-04T06:44:43.507Z,103760.05
2018-05-04T06:47:11.095Z,103707.20
2018-05-04T06:49:38.625Z,103852.55
2018-05-04T06:52:06.155Z,103923.70
2018-05-04T06:54:34.094Z,104133.09
2018-05-04T06:57:01.615Z,104259.14
2018-05-04T06:59:29.214Z,104271.33
2018-05-04T07:01:56.731Z,104189.00
2018-05-04T07:04:24.303Z,104271.33
2018-05-04T07:06:51.826Z,104234.74
2018-05-04T07:09:19.350Z,104182.90
2018-05-04T07:11:46.915Z,104162.57
2018-05-04T07:14:14.448Z,104126.98
2018-05-04T07:16:42.003Z,104104.63
2018-05-04T07:19:09.985Z,104020.27
2018-05-04T07:21:37.523Z,103943.01
2018-05-04T07:24:05.068Z,103944.02
2018-05-04T07:26:32.738Z,103990.78
2018-05-04T07:29:00.274Z,104022.30
2018-05-04T07:31:27.799Z,103925.73
2018-05-04T07:33:55.381Z,103845.43
2018-05-04T07:36:22.909Z,103841.37
2018-05-04T07:38:50.431Z,103808.84
2018-05-04T07:41:18.343Z,103745.83
2018-05-04T07:43:45.879Z,103692.98
2018-05-04T07:46:13.416Z,103737.70
2018-05-04T07:48:41.040Z,103701.11
2018-05-04T07:51:08.516Z,103664.52
2018-05-04T07:53:36.431Z,103620.81
2018-05-04T07:56:03.960Z,103667.56
2018-05-04T07:58:31.494Z,103571.02
2018-05-04T08:00:59.387Z,103616.75
2018-05-04T08:03:26.933Z,103579.14
2018-05-04T08:05:54.459Z,103553.73
2018-05-04T08:08:22.009Z,103481.58
2018-05-04T08:10:49.536Z,103499.88
2018-05-04T08:13:17.132Z,103352.51
2018-05-04T08:15:44.658Z,103280.35
2018-05-04T08:18:12.174Z,103151.30
2018-05-04T08:20:39.715Z,103090.32
2018-05-04T08:23:07.238Z,103142.14
2018-05-04T08:25:35.139Z,103135.03
2018-05-04T08:28:02.664Z,103154.34
2018-05-04T08:30:30.206Z,103275.27
2018-05-04T08:32:57.754Z,103150.28
2018-05-04T08:35:25.302Z,102907.41
2018-05-04T08:37:52.852Z,102856.60
2018-05-04T08:40:20.400Z,102952.13
2018-05-04T08:42:47.970Z,103074.06
2018-05-04T08:45:15.495Z,103032.40
2018-05-04T08:47:43.081Z,102900.30
2018-05-04T08:50:10.611Z,102866.77
2018-05-04T08:52:38.149Z,102848.48
2018-05-04T08:55:06.027Z,102793.61
2018-05-04T08:57:33.551Z,102822.05
2018-05-04T09:00:01.074Z,102768.20
2018-05-04T09:02:28.636Z,102754.99
2018-05-04T09:04:56.175Z,102875.91
2018-05-04T09:07:23.731Z,102864.73
2018-05-04T09:09:51.250Z,102874.89
2018-05-04T09:12:18.850Z,102894.20
2018-05-04T09:14:46.381Z,102796.66
2018-05-04T09:17:13.919Z,102869.81
2018-05-04T09:19:41.471Z,102837.30
2018-05-04T09:22:09.033Z,102746.86
2018-05-04T09:24:36.993Z,102708.25
2018-05-04T09:27:04.527Z,102697.08
2018-05-04T09:29:32.047Z,102711.30
2018-05-04T09:31:59.595Z,102792.59
2018-05-04T09:34:27.119Z,102768.20
2018-05-04T09:36:54.654Z,102826.13
2018-05-04T09:39:22.467Z,102736.70
2018-05-04T09:41:49.984Z,102652.38
2018-05-04T09:44:17.506Z,102676.75
2018-05-04T09:46:45.055Z,102748.90
2018-05-04T09:49:12.588Z,103014.11
2018-05-04T09:51:40.499Z,102620.88
2018-05-04T09:54:08.028Z,102588.36
2018-05-04T09:56:35.584Z,102511.14
2018-05-04T09:59:03.135Z,102543.66
2018-05-04T10:01:30.663Z,102540.61
2018-05-04T10:03:58.268Z,102555.84
2018-05-04T10:06:25.811Z,102548.73
2018-05-04T10:08:53.357Z,102503.01
2018-05-04T10:11:20.913Z,102503.01
2018-05-04T10:13:48.444Z,102544.67
2018-05-04T10:16:15.992Z,102535.52
2018-05-04T10:18:43.553Z,102430.88
2018-05-04T10:21:11.119Z,102445.09
2018-05-04T10:23:38.652Z,102354.67
2018-05-04T10:26:06.618Z,102324.20
2018-05-04T10:28:34.159Z,102205.33
2018-05-04T10:31:01.694Z,102254.09
2018-05-04T10:33:29.638Z,102170.79
2018-05-04T10:35:57.173Z,102168.76
2018-05-04T10:38:24.717Z,102233.77
2018-05-04T10:40:52.303Z,102175.87
2018-05-04T10:43:19.817Z,102039.73
2018-05-04T10:45:47.338Z,102264.25
2018-05-04T10:48:15.312Z,102292.70
2018-05-04T10:50:42.859Z,102206.34
2018-05-04T10:53:10.524Z,102272.38
2018-05-04T10:55:38.225Z,102201.27
2018-05-04T10:58:05.767Z,102221.58
2018-05-04T11:00:33.297Z,102225.65
2018-05-04T11:03:00.842Z,102408.52
2018-05-04T11:05:28.376Z,102296.77
2018-05-04T11:07:55.930Z,102244.95
2018-05-04T11:10:23.473Z,102370.93
2018-05-04T11:12:51.038Z,102204.31
2018-05-04T11:15:18.600Z,102098.66
2018-05-04T11:17:46.127Z,102028.56
2018-05-04T11:20:14.088Z,102080.38
2018-05-04T11:22:41.622Z,102154.53
2018-05-04T11:25:09.155Z,101966.59
2018-05-04T11:27:36.698Z,102114.91
2018-05-04T11:30:04.658Z,102111.86
2018-05-04T11:32:32.183Z,102143.36
2018-05-04T11:34:59.724Z,102139.30
2018-05-04T11:37:27.299Z,102190.09
2018-05-04T11:39:54.831Z,101955.42
2018-05-04T11:42:22.367Z,101923.92
2018-05-04T11:44:49.920Z,102027.55
2018-05-04T11:47:17.479Z,102047.86
2018-05-04T11:49:45.031Z,101936.12
2018-05-04T11:52:12.579Z,101886.34
2018-05-04T11:54:40.137Z,101979.80
2018-05-04T11:57:07.676Z,101839.61
2018-05-04T11:59:35.271Z,101983.86
2018-05-04T12:02:02.819Z,101967.61
2018-05-04T12:04:30.353Z,101898.53
2018-05-04T12:06:57.932Z,101933.07
2018-05-04T12:09:25.464Z,102011.29
2018-05-04T12:11:52.997Z,101916.81
2018-05-04T12:14:20.544Z,102307.94
2018-05-04T12:16:48.072Z,102105.77
2018-05-04T12:19:15.803Z,101978.78
2018-05-04T12:21:43.345Z,101786.78
2018-05-04T12:24:10.883Z,101843.67
2018-05-04T12:26:38.442Z,101833.52
2018-05-04T12:29:05.965Z,101790.85
2018-05-04T12:31:33.566Z,101640.52
2018-05-04T12:34:01.152Z,101776.63
2018-05-04T12:36:28.647Z,101868.05
2018-05-04T12:38:56.219Z,101759.36
2018-05-04T12:41:23.751Z,101716.70
2018-05-04T12:43:51.283Z,101593.79
2018-05-04T12:46:18.835Z,101766.47
2018-05-04T12:48:46.370Z,101721.78
2018-05-04T12:51:13.929Z,101736.00
2018-05-04T12:53:41.496Z,101774.60
2018-05-04T12:56:09.213Z,101846.72
2018-05-04T12:58:36.737Z,101644.58
2018-05-04T13:01:04.290Z,101720.77
2018-05-04T13:03:31.867Z,101586.68
2018-05-04T13:05:59.404Z,101468.86
2018-05-04T13:08:26.936Z,101454.63
2018-05-04T13:10:54.487Z,101580.59
2018-05-04T13:13:22.043Z,101553.16
2018-05-04T13:15:49.603Z,101558.23
2018-05-04T13:18:17.145Z,101528.78
2018-05-04T13:20:44.701Z,101342.91
2018-05-04T13:23:12.233Z,101540.97
2018-05-04T13:25:39.795Z,101547.06
2018-05-04T13:28:07.966Z,101702.48
2018-05-04T13:30:35.488Z,101688.25
2018-05-04T13:33:03.015Z,101417.05
2018-05-04T13:35:30.619Z,101480.03
2018-05-04T13:37:58.151Z,101575.50
2018-05-04T13:40:25.703Z,101449.56
2018-05-04T13:42:53.280Z,101564.34
2018-05-04T13:45:20.816Z,101461.74
2018-05-04T13:47:48.444Z,101504.41
2018-05-04T13:50:15.931Z,101390.64
2018-05-04T13:52:43.488Z,101483.08
2018-05-04T13:55:11.474Z,101363.22
2018-05-04T13:57:39.014Z,101388.61
2018-05-04T14:00:06.683Z,101329.70
2018-05-04T14:02:34.271Z,101301.27
2018-05-04T14:05:01.836Z,101297.20
2018-05-04T14:07:29.429Z,101315.48
2018-05-04T14:09:56.952Z,101460.73
2018-05-04T14:12:24.477Z,101412.98
2018-05-04T14:14:52.031Z,101446.51
2018-05-04T14:17:19.566Z,101297.20
2018-05-04T14:19:47.123Z,101401.81
2018-05-04T14:22:14.651Z,101355.09
2018-05-04T14:24:42.608Z,101386.58
2018-05-04T14:27:10.147Z,101486.12
2018-05-04T14:29:37.677Z,101464.80
2018-05-04T14:32:05.234Z,101377.44
2018-05-04T14:34:32.771Z,101180.40
2018-05-04T14:37:00.322Z,101195.64
2018-05-04T14:39:27.857Z,101197.67
2018-05-04T14:41:55.403Z,101177.36
2018-05-04T14:44:22.957Z,101297.20
2018-05-04T14:46:50.529Z,101298.22
2018-05-04T14:49:18.118Z,101310.41
2018-05-04T14:51:45.702Z,101399.78
2018-05-04T14:54:13.267Z,101338.84
2018-05-04T14:56:41.016Z,101238.30
2018-05-04T14:59:08.550Z,101289.08
2018-05-04T15:01:36.079Z,101201.73
2018-05-04T15:04:04.108Z,101222.05
2018-05-04T15:06:31.605Z,101133.69
2018-05-04T15:08:59.160Z,101198.69
2018-05-04T15:11:26.716Z,101280.95
2018-05-04T15:13:54.242Z,101292.13
2018-05-04T15:16:21.802Z,101226.11
2018-05-04T15:18:49.403Z,101149.93
2018-05-04T15:21:16.968Z,101190.56
2018-05-04T15:23:44.511Z,101327.67
2018-05-04T15:26:12.059Z,101297.20
2018-05-04T15:28:39.624Z,101202.75
2018-05-04T15:31:07.195Z,101205.80
2018-05-04T15:33:34.743Z,101222.05
2018-05-04T15:36:02.280Z,101277.91
2018-05-04T15:38:30.681Z,101305.33
2018-05-04T15:40:58.216Z,101231.19
2018-05-04T15:43:25.771Z,101293.14
2018-05-04T15:45:53.321Z,101317.52
2018-05-04T15:48:26.464Z,101253.53
2018-05-04T15:50:59.592Z,101320.56
2018-05-04T15:53:27.279Z,101342.91
2018-05-04T15:55:54.802Z,101262.67
2018-05-04T15:58:22.326Z,101273.84
2018-05-04T16:00:49.894Z,101226.11
2018-05-04T16:03:17.419Z,101213.92
2018-05-04T16:05:44.973Z,101278.92
2018-05-04T16:08:12.531Z,101212.91
2018-05-04T16:10:40.073Z,101239.31
2018-05-04T16:13:07.973Z,101248.45
2018-05-04T16:15:35.502Z,101310.41
2018-05-04T16:18:03.031Z,101355.09
2018-05-04T16:20:30.583Z,101385.56
2018-05-04T16:22:58.239Z,101347.98
2018-05-04T16:25:25.766Z,101309.39
2018-05-04T16:27:53.282Z,101385.56
2018-05-04T16:30:21.290Z,101416.03
2018-05-04T16:32:48.831Z,101380.48
2018-05-04T16:35:16.352Z,101334.78
2018-05-04T16:37:43.911Z,101354.08
2018-05-04T16:40:11.444Z,101385.56
2018-05-04T16:42:38.993Z,101374.39
2018-05-04T16:45:06.571Z,101375.41
2018-05-04T16:47:34.505Z,101373.38
2018-05-04T16:50:02.036Z,101424.16
2018-05-04T16:52:29.629Z,101460.73
2018-05-04T16:54:57.198Z,101465.81
2018-05-04T16:57:24.757Z,101461.74
2018-05-04T16:59:52.323Z,101493.23
2018-05-04T17:02:19.861Z,101558.23
2018-05-04T17:04:47.421Z,101508.47
2018-05-04T17:07:14.996Z,101532.84
2018-05-04T17:09:42.534Z,101543.00
2018-05-04T17:12:10.074Z,101539.95
2018-05-04T17:14:37.657Z,101561.28
2018-05-04T17:17:05.213Z,101538.94
2018-05-04T17:19:32.735Z,101576.52
2018-05-04T17:22:00.332Z,101641.53
2018-05-04T17:24:27.912Z,101678.09
2018-05-04T17:26:55.459Z,101674.03
2018-05-04T17:29:23.044Z,101719.75
2018-05-04T17:31:50.567Z,101764.44
2018-05-04T17:34:18.119Z,101781.71
2018-05-04T17:36:45.642Z,101784.76
2018-05-04T17:39:13.604Z,101773.58
2018-05-04T17:41:41.133Z,101834.53
2018-05-04T17:44:08.657Z,101871.10
2018-05-04T17:46:36.222Z,101940.18
2018-05-04T17:49:03.773Z,101953.39
2018-05-04T17:51:31.332Z,102008.24
2018-05-04T17:53:58.859Z,101981.83
2018-05-04T17:56:26.431Z,102067.16
2018-05-04T17:58:54.110Z,102036.69
2018-05-04T18:01:21.635Z,102063.10
2018-05-04T18:03:49.167Z,102075.30
2018-05-04T18:06:16.699Z,101865.01
2018-05-04T18:08:44.260Z,101744.12
2018-05-04T18:11:11.788Z,101648.64
2018-05-04T18:13:39.340Z,101610.05
2018-05-04T18:16:06.896Z,101753.27
2018-05-04T18:18:34.450Z,101759.36
2018-05-04T18:21:02.006Z,101650.67
2018-05-04T18:23:29.531Z,101801.01
2018-05-04T18:25:57.085Z,102026.53
2018-05-04T18:28:24.642Z,102097.64
2018-05-04T18:30:52.173Z,102265.27
2018-05-04T18:33:19.723Z,102310.98
2018-05-04T18:35:47.242Z,102391.25
2018-05-04T18:38:14.855Z,102352.64
2018-05-04T18:40:42.367Z,102428.84
2018-05-04T18:43:09.886Z,102551.78
2018-05-04T18:45:37.582Z,102513.17
2018-05-04T18:48:05.115Z,102572.10
2018-05-04T18:50:32.644Z,102646.27
2018-05-04T18:53:00.235Z,102667.61
2018-05-04T18:55:27.775Z,102734.67
2018-05-04T18:57:55.379Z,102788.52
2018-05-04T19:00:22.902Z,102794.62
2018-05-04T19:02:56.073Z,102860.67
2018-05-04T19:05:23.593Z,102891.16
2018-05-04T19:07:51.115Z,102911.47
2018-05-04T19:10:18.672Z,102929.77
2018-05-04T19:12:46.195Z,103005.98
2018-05-04T19:15:13.759Z,103024.27
2018-05-04T19:17:41.288Z,103011.06
2018-05-04T19:20:08.835Z,103060.85
2018-05-04T19:22:36.363Z,103049.67
2018-05-04T19:25:03.960Z,103114.71
2018-05-04T19:27:31.488Z,103128.94
2018-05-04T19:29:59.059Z,103092.35
2018-05-04T19:32:26.607Z,103129.95
2018-05-04T19:34:54.130Z,103149.26
2018-05-04T19:37:21.683Z,103236.66
2018-05-04T19:39:49.242Z,103185.84
2018-05-04T19:42:16.787Z,103194.98
2018-05-04T19:44:44.323Z,103232.59
2018-05-04T19:47:12.073Z,103246.81
2018-05-04T19:49:39.604Z,103232.59
2018-05-04T19:52:07.127Z,103256.98
2018-05-04T19:54:34.692Z,103317.95
2018-05-04T19:57:02.213Z,103301.70
2018-05-04T19:59:29.931Z,103308.81
2018-05-04T20:01:57.468Z,103317.95
2018-05-04T20:04:25.016Z,103332.19
2018-05-04T20:06:52.562Z,103328.12
2018-05-04T20:09:20.095Z,103426.70
2018-05-04T20:11:47.646Z,103390.11
2018-05-04T20:14:15.178Z,103407.39
2018-05-04T20:16:42.743Z,103439.91
2018-05-04T20:19:10.294Z,103506.98
2018-05-04T20:21:37.838Z,103452.10
2018-05-04T20:24:05.394Z,103493.77
2018-05-04T20:26:32.932Z,103483.61
2018-05-04T20:29:00.577Z,103536.45
2018-05-04T20:31:28.066Z,103530.36
2018-05-04T20:33:55.604Z,103550.69
2018-05-04T20:36:23.301Z,103564.91
2018-05-04T20:38:50.862Z,103596.42
2018-05-04T20:41:18.428Z,103608.62
2018-05-04T20:43:45.980Z,103590.32
2018-05-04T20:46:13.505Z,103594.39
2018-05-04T20:48:41.051Z,103636.05
2018-05-04T20:51:08.774Z,103637.08
2018-05-04T20:53:36.376Z,103691.95
2018-05-04T20:56:03.920Z,103679.77
2018-05-04T20:58:31.508Z,103708.22
2018-05-04T21:00:59.360Z,103742.78
2018-05-04T21:03:26.879Z,103796.64
2018-05-04T21:05:54.407Z,103787.50
2018-05-04T21:08:21.950Z,103796.64
2018-05-04T21:10:49.475Z,103819.00
2018-05-04T21:13:17.024Z,103810.88
2018-05-04T21:15:44.548Z,103821.04
2018-05-04T21:18:12.131Z,103868.81
2018-05-04T21:20:39.650Z,103877.96
2018-05-04T21:23:07.166Z,103869.83
2018-05-04T21:25:34.735Z,103881.01
2018-05-04T21:28:02.265Z,103874.91
2018-05-04T21:30:29.826Z,103904.38
2018-05-04T21:32:57.364Z,103932.84
2018-05-04T21:35:24.919Z,103926.75
2018-05-04T21:37:52.465Z,103936.91
2018-05-04T21:40:20.042Z,103912.52
2018-05-04T21:42:47.577Z,103981.64
2018-05-04T21:45:15.109Z,103987.73
2018-05-04T21:47:42.667Z,103975.54
2018-05-04T21:50:10.203Z,104021.28
2018-05-04T21:52:37.774Z,104005.02
2018-05-04T21:55:05.299Z,104052.78
2018-05-04T21:57:32.823Z,104056.85
2018-05-04T22:00:00.380Z,104063.97
2018-05-04T22:02:27.907Z,104101.58
2018-05-04T22:04:55.470Z,104120.89
2018-05-04T22:07:23.019Z,104108.70
2018-05-04T22:09:50.699Z,104136.14
2018-05-04T22:12:18.213Z,104136.14
2018-05-04T22:14:45.762Z,104184.93
2018-05-04T22:17:13.326Z,104192.05
2018-05-04T22:19:40.852Z,104220.51
2018-05-04T22:22:08.416Z,104213.39
2018-05-04T22:24:35.949Z,104212.38
2018-05-04T22:27:03.520Z,104221.53
2018-05-04T22:29:31.052Z,104218.48
2018-05-04T22:31:58.570Z,104244.91
2018-05-04T22:34:26.217Z,104225.59
2018-05-04T22:36:53.737Z,104255.07
2018-05-04T22:39:21.259Z,104280.48
2018-05-04T22:41:48.807Z,104282.52
2018-05-04T22:44:16.375Z,104297.77
2018-05-04T22:46:43.920Z,104324.20
2018-05-04T22:49:11.441Z,104344.53
2018-05-04T22:51:38.991Z,104338.42
2018-05-04T22:54:06.515Z,104327.24
2018-05-04T22:56:34.366Z,104396.37
2018-05-04T22:59:01.877Z,104380.11
2018-05-04T23:01:29.413Z,104432.97
2018-05-04T23:03:57.112Z,104436.02
2018-05-04T23:06:24.650Z,104433.98
2018-05-04T23:08:52.254Z,104440.08
2018-05-04T23:11:19.802Z,104442.12
2018-05-04T23:13:47.373Z,104485.83
2018-05-04T23:16:14.900Z,104468.55
2018-05-04T23:18:42.427Z,104506.16
2018-05-04T23:21:09.966Z,104497.02
2018-05-04T23:23:37.496Z,104546.83
2018-05-04T23:26:05.091Z,104546.83
2018-05-04T23:28:32.627Z,104541.75
2018-05-04T23:31:00.167Z,104524.46
2018-05-04T23:33:27.723Z,104554.96
2018-05-04T23:35:55.253Z,104555.98
2018-05-04T23:38:22.923Z,104632.23
2018-05-04T23:40:50.449Z,104613.92
2018-05-04T23:43:17.972Z,104642.39
2018-05-04T23:45:45.528Z,104615.96
2018-05-04T23:48:13.080Z,104671.88
2018-05-04T23:50:40.608Z,104678.98
2018-05-04T23:53:08.275Z,104656.63
2018-05-04T23:55:35.919Z,104707.45
2018-05-04T23:58:03.464Z,104671.88
